sensor_id;sensor_type;location;lat;lon;timestamp;temperature;humidity
9861;DHT22;4969;52.304;4.968;2023-03-12T00:01:16;4.92;69.46
9861;DHT22;4969;52.304;4.968;2023-03-12T00:03:43;4.73;68.66
9861;DHT22;4969;52.304;4.968;2023-03-12T00:06:10;5.43;72.87
9861;DHT22;4969;52.304;4.968;2023-03-12T00:08:36;6.01;72.69
9861;DHT22;4969;52.304;4.968;2023-03-12T00:11:07;5.95;72.06
9861;DHT22;4969;52.304;4.968;2023-03-12T00:13:35;5.85;65.29
9861;DHT22;4969;52.304;4.968;2023-03-12T00:16:05;5.48;64.25
9861;DHT22;4969;52.304;4.968;2023-03-12T00:18:31;5.70;71.82
9861;DHT22;4969;52.304;4.968;2023-03-12T00:20:58;5.98;66.96
9861;DHT22;4969;52.304;4.968;2023-03-12T00:23:24;6.05;67.56
9861;DHT22;4969;52.304;4.968;2023-03-12T00:25:51;5.56;64.12
9861;DHT22;4969;52.304;4.968;2023-03-12T00:28:18;5.64;68.78
9861;DHT22;4969;52.304;4.968;2023-03-12T00:30:44;5.60;63.61
9861;DHT22;4969;52.304;4.968;2023-03-12T00:33:12;5.64;63.85
9861;DHT22;4969;52.304;4.968;2023-03-12T00:35:39;5.39;65.00
9861;DHT22;4969;52.304;4.968;2023-03-12T00:38:05;6.01;65.81
9861;DHT22;4969;52.304;4.968;2023-03-12T00:40:32;5.94;68.58
9861;DHT22;4969;52.304;4.968;2023-03-12T00:42:58;6.29;65.56
9861;DHT22;4969;52.304;4.968;2023-03-12T00:45:25;7.12;73.49
9861;DHT22;4969;52.304;4.968;2023-03-12T00:47:51;6.68;62.12
9861;DHT22;4969;52.304;4.968;2023-03-12T00:50:19;6.10;61.90
9861;DHT22;4969;52.304;4.968;2023-03-12T00:52:46;6.92;65.74
9861;DHT22;4969;52.304;4.968;2023-03-12T00:55:13;7.72;73.60
9861;DHT22;4969;52.304;4.968;2023-03-12T00:57:39;7.06;62.11
9861;DHT22;4969;52.304;4.968;2023-03-12T01:00:07;6.84;63.29
9861;DHT22;4969;52.304;4.968;2023-03-12T01:02:34;7.48;68.51
9861;DHT22;4969;52.304;4.968;2023-03-12T01:05:02;8.51;72.87
9861;DHT22;4969;52.304;4.968;2023-03-12T01:07:30;9.00;72.99
9861;DHT22;4969;52.304;4.968;2023-03-12T01:09:56;8.03;61.91
9861;DHT22;4969;52.304;4.968;2023-03-12T01:12:23;7.94;62.96
9861;DHT22;4969;52.304;4.968;2023-03-12T01:14:49;7.79;72.85
9861;DHT22;4969;52.304;4.968;2023-03-12T01:17:16;7.01;58.97
9861;DHT22;4969;52.304;4.968;2023-03-12T01:19:43;7.67;67.66
9861;DHT22;4969;52.304;4.968;2023-03-12T01:22:09;7.26;63.48
9861;DHT22;4969;52.304;4.968;2023-03-12T01:24:37;6.81;59.98
9861;DHT22;4969;52.304;4.968;2023-03-12T01:27:04;7.16;69.55
9861;DHT22;4969;52.304;4.968;2023-03-12T01:29:30;7.02;65.07
9861;DHT22;4969;52.304;4.968;2023-03-12T01:31:57;6.64;65.21
9861;DHT22;4969;52.304;4.968;2023-03-12T01:34:23;6.28;62.43
9861;DHT22;4969;52.304;4.968;2023-03-12T01:36:50;6.65;64.66
9861;DHT22;4969;52.304;4.968;2023-03-12T01:39:16;6.96;64.84
9861;DHT22;4969;52.304;4.968;2023-03-12T01:41:44;6.74;61.21
9861;DHT22;4969;52.304;4.968;2023-03-12T01:44:13;7.41;63.15
9861;DHT22;4969;52.304;4.968;2023-03-12T01:46:40;7.18;64.28
9861;DHT22;4969;52.304;4.968;2023-03-12T01:49:09;7.09;62.11
9861;DHT22;4969;52.304;4.968;2023-03-12T01:51:38;7.15;62.02
9861;DHT22;4969;52.304;4.968;2023-03-12T01:54:08;7.62;64.80
9861;DHT22;4969;52.304;4.968;2023-03-12T01:56:36;8.13;72.16
9861;DHT22;4969;52.304;4.968;2023-03-12T01:59:10;8.73;69.91
9861;DHT22;4969;52.304;4.968;2023-03-12T02:01:38;8.72;69.47
9861;DHT22;4969;52.304;4.968;2023-03-12T02:04:06;8.37;59.12
9861;DHT22;4969;52.304;4.968;2023-03-12T02:06:36;7.98;62.32
9861;DHT22;4969;52.304;4.968;2023-03-12T02:09:06;7.65;64.20
9861;DHT22;4969;52.304;4.968;2023-03-12T02:11:32;8.62;64.60
9861;DHT22;4969;52.304;4.968;2023-03-12T02:13:59;9.79;71.29
9861;DHT22;4969;52.304;4.968;2023-03-12T02:16:28;10.00;64.61
9861;DHT22;4969;52.304;4.968;2023-03-12T02:18:55;10.03;63.33
9861;DHT22;4969;52.304;4.968;2023-03-12T02:21:25;10.57;66.53
9861;DHT22;4969;52.304;4.968;2023-03-12T02:23:59;9.93;61.94
9861;DHT22;4969;52.304;4.968;2023-03-12T02:26:29;9.34;63.60
9861;DHT22;4969;52.304;4.968;2023-03-12T02:28:58;8.98;61.10
9861;DHT22;4969;52.304;4.968;2023-03-12T02:31:28;9.55;63.95
9861;DHT22;4969;52.304;4.968;2023-03-12T02:33:57;9.17;64.27
9861;DHT22;4969;52.304;4.968;2023-03-12T02:36:25;10.76;67.68
9861;DHT22;4969;52.304;4.968;2023-03-12T02:38:53;10.65;59.33
9861;DHT22;4969;52.304;4.968;2023-03-12T02:41:22;9.57;58.56
9861;DHT22;4969;52.304;4.968;2023-03-12T02:43:57;9.68;63.68
9861;DHT22;4969;52.304;4.968;2023-03-12T02:46:24;9.73;56.34
9861;DHT22;4969;52.304;4.968;2023-03-12T02:48:52;8.95;60.07
9861;DHT22;4969;52.304;4.968;2023-03-12T02:51:19;8.91;66.28
9861;DHT22;4969;52.304;4.968;2023-03-12T02:53:46;9.07;65.69
9861;DHT22;4969;52.304;4.968;2023-03-12T02:56:14;10.00;65.80
9861;DHT22;4969;52.304;4.968;2023-03-12T02:58:40;10.26;63.86
9861;DHT22;4969;52.304;4.968;2023-03-12T03:01:09;10.38;64.45
9861;DHT22;4969;52.304;4.968;2023-03-12T03:03:35;10.33;64.30
9861;DHT22;4969;52.304;4.968;2023-03-12T03:06:02;10.65;66.08
9861;DHT22;4969;52.304;4.968;2023-03-12T03:08:28;11.57;62.98
9861;DHT22;4969;52.304;4.968;2023-03-12T03:10:55;12.00;57.95
9861;DHT22;4969;52.304;4.968;2023-03-12T03:13:21;12.24;57.95
9861;DHT22;4969;52.304;4.968;2023-03-12T03:15:48;11.93;61.30
9861;DHT22;4969;52.304;4.968;2023-03-12T03:18:16;11.81;61.44
9861;DHT22;4969;52.304;4.968;2023-03-12T03:20:42;11.36;53.14
9861;DHT22;4969;52.304;4.968;2023-03-12T03:23:09;10.42;59.64
9861;DHT22;4969;52.304;4.968;2023-03-12T03:25:36;10.42;59.01
9861;DHT22;4969;52.304;4.968;2023-03-12T03:28:02;11.28;61.08
9861;DHT22;4969;52.304;4.968;2023-03-12T03:30:29;11.69;62.49
9861;DHT22;4969;52.304;4.968;2023-03-12T03:32:56;11.44;63.42
9861;DHT22;4969;52.304;4.968;2023-03-12T03:35:24;11.59;61.35
9861;DHT22;4969;52.304;4.968;2023-03-12T03:37:51;12.27;62.52
9861;DHT22;4969;52.304;4.968;2023-03-12T03:40:17;13.14;58.37
9861;DHT22;4969;52.304;4.968;2023-03-12T03:42:44;13.16;56.81
9861;DHT22;4969;52.304;4.968;2023-03-12T03:45:10;12.47;54.79
9861;DHT22;4969;52.304;4.968;2023-03-12T03:47:37;12.86;56.18
9861;DHT22;4969;52.304;4.968;2023-03-12T03:50:05;12.13;59.64
9861;DHT22;4969;52.304;4.968;2023-03-12T03:52:33;12.58;54.21
9861;DHT22;4969;52.304;4.968;2023-03-12T03:54:59;12.58;56.50
9861;DHT22;4969;52.304;4.968;2023-03-12T03:57:26;12.16;55.40
9861;DHT22;4969;52.304;4.968;2023-03-12T03:59:53;11.76;56.67
9861;DHT22;4969;52.304;4.968;2023-03-12T04:02:20;12.41;60.97
9861;DHT22;4969;52.304;4.968;2023-03-12T04:04:47;12.80;59.76
9861;DHT22;4969;52.304;4.968;2023-03-12T04:07:14;11.24;60.26
9861;DHT22;4969;52.304;4.968;2023-03-12T04:09:42;11.69;60.59
9861;DHT22;4969;52.304;4.968;2023-03-12T04:12:09;12.93;59.10
9861;DHT22;4969;52.304;4.968;2023-03-12T04:14:38;13.10;55.86
9861;DHT22;4969;52.304;4.968;2023-03-12T04:17:05;13.71;57.66
9861;DHT22;4969;52.304;4.968;2023-03-12T04:19:32;14.10;52.46
9861;DHT22;4969;52.304;4.968;2023-03-12T04:21:59;14.35;55.91
9861;DHT22;4969;52.304;4.968;2023-03-12T04:24:25;14.20;55.95
9861;DHT22;4969;52.304;4.968;2023-03-12T04:26:53;14.42;54.57
9861;DHT22;4969;52.304;4.968;2023-03-12T04:29:20;14.35;51.82
9861;DHT22;4969;52.304;4.968;2023-03-12T04:31:46;14.48;55.48
9861;DHT22;4969;52.304;4.968;2023-03-12T04:34:13;14.12;55.63
9861;DHT22;4969;52.304;4.968;2023-03-12T04:36:39;14.12;55.50
9861;DHT22;4969;52.304;4.968;2023-03-12T04:39:06;13.03;53.37
9861;DHT22;4969;52.304;4.968;2023-03-12T04:41:34;13.72;54.44
9861;DHT22;4969;52.304;4.968;2023-03-12T04:44:03;13.31;59.06
9861;DHT22;4969;52.304;4.968;2023-03-12T04:46:30;13.38;58.76
9861;DHT22;4969;52.304;4.968;2023-03-12T04:48:56;13.48;51.29
9861;DHT22;4969;52.304;4.968;2023-03-12T04:51:27;12.24;56.97
9861;DHT22;4969;52.304;4.968;2023-03-12T04:53:53;13.52;56.43
9861;DHT22;4969;52.304;4.968;2023-03-12T04:56:20;13.42;57.35
9861;DHT22;4969;52.304;4.968;2023-03-12T04:58:47;12.88;55.92
9861;DHT22;4969;52.304;4.968;2023-03-12T05:01:21;13.09;58.60
9861;DHT22;4969;52.304;4.968;2023-03-12T05:03:49;12.04;55.07
9861;DHT22;4969;52.304;4.968;2023-03-12T05:06:15;11.65;58.84
9861;DHT22;4969;52.304;4.968;2023-03-12T05:08:42;12.36;54.89
9861;DHT22;4969;52.304;4.968;2023-03-12T05:11:08;12.76;55.96
9861;DHT22;4969;52.304;4.968;2023-03-12T05:13:35;13.09;58.67
9861;DHT22;4969;52.304;4.968;2023-03-12T05:16:01;13.71;57.17
9861;DHT22;4969;52.304;4.968;2023-03-12T05:18:29;13.97;56.11
9861;DHT22;4969;52.304;4.968;2023-03-12T05:20:58;13.54;57.29
9861;DHT22;4969;52.304;4.968;2023-03-12T05:23:24;13.68;54.63
9861;DHT22;4969;52.304;4.968;2023-03-12T05:25:52;13.42;56.74
9861;DHT22;4969;52.304;4.968;2023-03-12T05:28:19;13.20;53.11
9861;DHT22;4969;52.304;4.968;2023-03-12T05:30:46;12.24;57.36
9861;DHT22;4969;52.304;4.968;2023-03-12T05:33:15;12.21;59.78
9861;DHT22;4969;52.304;4.968;2023-03-12T05:35:43;13.03;53.92
9861;DHT22;4969;52.304;4.968;2023-03-12T05:38:09;12.65;56.07
9861;DHT22;4969;52.304;4.968;2023-03-12T05:40:36;13.81;55.34
9861;DHT22;4969;52.304;4.968;2023-03-12T05:43:03;14.10;57.09
9861;DHT22;4969;52.304;4.968;2023-03-12T05:45:29;13.55;56.86
9861;DHT22;4969;52.304;4.968;2023-03-12T05:47:56;13.72;53.19
9861;DHT22;4969;52.304;4.968;2023-03-12T05:50:23;13.41;57.05
9861;DHT22;4969;52.304;4.968;2023-03-12T05:52:51;13.96;57.00
9861;DHT22;4969;52.304;4.968;2023-03-12T05:55:18;14.57;55.72
9861;DHT22;4969;52.304;4.968;2023-03-12T05:57:44;13.52;53.88
9861;DHT22;4969;52.304;4.968;2023-03-12T06:00:15;14.82;54.52
9861;DHT22;4969;52.304;4.968;2023-03-12T06:02:42;14.61;54.89
9861;DHT22;4969;52.304;4.968;2023-03-12T06:05:09;14.34;55.59
9861;DHT22;4969;52.304;4.968;2023-03-12T06:07:36;14.79;54.22
9861;DHT22;4969;52.304;4.968;2023-03-12T06:10:05;14.82;52.58
9861;DHT22;4969;52.304;4.968;2023-03-12T06:12:31;14.09;55.61
9861;DHT22;4969;52.304;4.968;2023-03-12T06:14:58;14.76;53.52
9861;DHT22;4969;52.304;4.968;2023-03-12T06:17:24;14.76;54.05
9861;DHT22;4969;52.304;4.968;2023-03-12T06:19:53;14.28;56.45
9861;DHT22;4969;52.304;4.968;2023-03-12T06:22:20;13.33;50.64
9861;DHT22;4969;52.304;4.968;2023-03-12T06:24:46;12.82;51.81
9861;DHT22;4969;52.304;4.968;2023-03-12T06:27:16;13.66;53.55
9861;DHT22;4969;52.304;4.968;2023-03-12T06:29:43;14.48;54.78
9861;DHT22;4969;52.304;4.968;2023-03-12T06:32:10;13.77;54.84
9861;DHT22;4969;52.304;4.968;2023-03-12T06:34:37;12.34;57.47
9861;DHT22;4969;52.304;4.968;2023-03-12T06:37:04;13.41;58.05
9861;DHT22;4969;52.304;4.968;2023-03-12T06:39:30;14.14;56.34
9861;DHT22;4969;52.304;4.968;2023-03-12T06:41:57;13.24;54.95
9861;DHT22;4969;52.304;4.968;2023-03-12T06:44:25;13.24;56.72
9861;DHT22;4969;52.304;4.968;2023-03-12T06:46:51;14.33;56.06
9861;DHT22;4969;52.304;4.968;2023-03-12T06:49:18;13.68;51.63
9861;DHT22;4969;52.304;4.968;2023-03-12T06:51:44;13.10;57.79
9861;DHT22;4969;52.304;4.968;2023-03-12T06:54:11;12.78;54.86
9861;DHT22;4969;52.304;4.968;2023-03-12T06:56:37;13.35;55.27
9861;DHT22;4969;52.304;4.968;2023-03-12T06:59:04;12.14;52.76
9861;DHT22;4969;52.304;4.968;2023-03-12T07:01:32;13.10;58.39
9861;DHT22;4969;52.304;4.968;2023-03-12T07:03:59;13.54;57.68
9861;DHT22;4969;52.304;4.968;2023-03-12T07:06:25;12.72;56.67
9861;DHT22;4969;52.304;4.968;2023-03-12T07:08:52;13.03;58.50
9861;DHT22;4969;52.304;4.968;2023-03-12T07:11:18;13.81;55.64
9861;DHT22;4969;52.304;4.968;2023-03-12T07:13:45;13.16;59.19
9861;DHT22;4969;52.304;4.968;2023-03-12T07:16:12;13.22;55.64
9861;DHT22;4969;52.304;4.968;2023-03-12T07:18:40;12.89;55.93
9861;DHT22;4969;52.304;4.968;2023-03-12T07:21:06;12.07;60.35
9861;DHT22;4969;52.304;4.968;2023-03-12T07:23:33;12.03;62.08
9861;DHT22;4969;52.304;4.968;2023-03-12T07:25:59;11.47;61.15
9861;DHT22;4969;52.304;4.968;2023-03-12T07:28:26;11.36;65.06
9861;DHT22;4969;52.304;4.968;2023-03-12T07:30:52;10.68;59.71
9861;DHT22;4969;52.304;4.968;2023-03-12T07:33:24;11.92;63.05
9861;DHT22;4969;52.304;4.968;2023-03-12T07:35:52;12.06;60.67
9861;DHT22;4969;52.304;4.968;2023-03-12T07:38:19;11.62;61.33
9861;DHT22;4969;52.304;4.968;2023-03-12T07:40:49;12.17;62.90
9861;DHT22;4969;52.304;4.968;2023-03-12T07:43:15;13.33;58.76
9861;DHT22;4969;52.304;4.968;2023-03-12T07:45:42;12.14;58.42
9861;DHT22;4969;52.304;4.968;2023-03-12T07:48:09;12.95;59.96
9861;DHT22;4969;52.304;4.968;2023-03-12T07:50:35;13.22;59.29
9861;DHT22;4969;52.304;4.968;2023-03-12T07:53:04;13.61;57.71
9861;DHT22;4969;52.304;4.968;2023-03-12T07:55:31;11.57;57.67
9861;DHT22;4969;52.304;4.968;2023-03-12T07:57:58;11.27;62.70
9861;DHT22;4969;52.304;4.968;2023-03-12T08:00:25;11.97;59.22
9861;DHT22;4969;52.304;4.968;2023-03-12T08:02:52;12.24;57.89
9861;DHT22;4969;52.304;4.968;2023-03-12T08:05:19;11.82;56.17
9861;DHT22;4969;52.304;4.968;2023-03-12T08:07:49;9.55;63.81
9861;DHT22;4969;52.304;4.968;2023-03-12T08:10:17;9.79;68.73
9861;DHT22;4969;52.304;4.968;2023-03-12T08:12:44;10.78;67.20
9861;DHT22;4969;52.304;4.968;2023-03-12T08:15:12;11.12;65.38
9861;DHT22;4969;52.304;4.968;2023-03-12T08:17:39;12.09;63.12
9861;DHT22;4969;52.304;4.968;2023-03-12T08:20:09;11.12;59.43
9861;DHT22;4969;52.304;4.968;2023-03-12T08:22:36;10.41;65.62
9861;DHT22;4969;52.304;4.968;2023-03-12T08:25:04;10.34;67.29
9861;DHT22;4969;52.304;4.968;2023-03-12T08:27:32;9.77;68.26
9861;DHT22;4969;52.304;4.968;2023-03-12T08:29:59;9.22;66.92
9861;DHT22;4969;52.304;4.968;2023-03-12T08:32:25;8.87;68.83
9861;DHT22;4969;52.304;4.968;2023-03-12T08:34:52;9.43;71.22
9861;DHT22;4969;52.304;4.968;2023-03-12T08:37:18;9.34;69.20
9861;DHT22;4969;52.304;4.968;2023-03-12T08:39:45;10.03;70.85
9861;DHT22;4969;52.304;4.968;2023-03-12T08:42:12;10.09;68.81
9861;DHT22;4969;52.304;4.968;2023-03-12T08:44:39;9.62;67.34
9861;DHT22;4969;52.304;4.968;2023-03-12T08:47:06;10.24;69.56
9861;DHT22;4969;52.304;4.968;2023-03-12T08:49:33;11.30;65.29
9861;DHT22;4969;52.304;4.968;2023-03-12T08:51:59;10.36;66.20
9861;DHT22;4969;52.304;4.968;2023-03-12T08:54:26;10.05;66.46
9861;DHT22;4969;52.304;4.968;2023-03-12T08:56:53;9.79;69.23
9861;DHT22;4969;52.304;4.968;2023-03-12T08:59:20;10.09;71.66
9861;DHT22;4969;52.304;4.968;2023-03-12T09:01:49;11.74;66.91
9861;DHT22;4969;52.304;4.968;2023-03-12T09:04:16;10.69;68.11
9861;DHT22;4969;52.304;4.968;2023-03-12T09:06:43;10.48;69.12
9861;DHT22;4969;52.304;4.968;2023-03-12T09:09:09;10.72;69.62
9861;DHT22;4969;52.304;4.968;2023-03-12T09:11:37;10.12;71.06
9861;DHT22;4969;52.304;4.968;2023-03-12T09:14:05;10.09;70.92
9861;DHT22;4969;52.304;4.968;2023-03-12T09:16:32;9.98;69.69
9861;DHT22;4969;52.304;4.968;2023-03-12T09:19:00;9.73;73.18
9861;DHT22;4969;52.304;4.968;2023-03-12T09:21:26;10.47;69.18
9861;DHT22;4969;52.304;4.968;2023-03-12T09:23:53;11.16;69.21
9861;DHT22;4969;52.304;4.968;2023-03-12T09:26:20;10.44;71.97
9861;DHT22;4969;52.304;4.968;2023-03-12T09:28:46;10.69;69.27
9861;DHT22;4969;52.304;4.968;2023-03-12T09:31:14;10.13;70.59
9861;DHT22;4969;52.304;4.968;2023-03-12T09:33:40;9.73;73.55
9861;DHT22;4969;52.304;4.968;2023-03-12T09:36:09;9.06;75.30
9861;DHT22;4969;52.304;4.968;2023-03-12T09:38:36;8.85;76.87
9861;DHT22;4969;52.304;4.968;2023-03-12T09:41:04;8.93;78.06
9861;DHT22;4969;52.304;4.968;2023-03-12T09:43:36;9.95;76.74
9861;DHT22;4969;52.304;4.968;2023-03-12T09:46:08;9.93;75.57
9861;DHT22;4969;52.304;4.968;2023-03-12T09:48:36;9.83;76.84
9861;DHT22;4969;52.304;4.968;2023-03-12T09:51:13;9.58;77.03
9861;DHT22;4969;52.304;4.968;2023-03-12T09:53:44;10.09;76.99
9861;DHT22;4969;52.304;4.968;2023-03-12T09:56:15;9.78;76.77
9861;DHT22;4969;52.304;4.968;2023-03-12T09:58:42;10.16;76.38
9861;DHT22;4969;52.304;4.968;2023-03-12T10:01:27;9.54;78.23
9861;DHT22;4969;52.304;4.968;2023-03-12T10:04:02;9.79;78.08
9861;DHT22;4969;52.304;4.968;2023-03-12T10:06:34;10.16;77.41
9861;DHT22;4969;52.304;4.968;2023-03-12T10:09:18;10.57;76.59
9861;DHT22;4969;52.304;4.968;2023-03-12T10:11:54;11.68;72.06
9861;DHT22;4969;52.304;4.968;2023-03-12T10:14:35;11.32;72.92
9861;DHT22;4969;52.304;4.968;2023-03-12T10:17:29;12.00;71.39
9861;DHT22;4969;52.304;4.968;2023-03-12T10:23:03;13.54;65.48
9861;DHT22;4969;52.304;4.968;2023-03-12T10:25:36;13.48;66.14
9861;DHT22;4969;52.304;4.968;2023-03-12T10:28:13;13.75;64.82
9861;DHT22;4969;52.304;4.968;2023-03-12T10:30:45;14.12;63.57
9861;DHT22;4969;52.304;4.968;2023-03-12T10:33:15;14.24;63.22
9861;DHT22;4969;52.304;4.968;2023-03-12T10:35:42;14.55;61.98
9861;DHT22;4969;52.304;4.968;2023-03-12T10:38:15;14.64;62.30
9861;DHT22;4969;52.304;4.968;2023-03-12T10:40:42;14.89;61.20
9861;DHT22;4969;52.304;4.968;2023-03-12T10:43:09;14.23;63.09
9861;DHT22;4969;52.304;4.968;2023-03-12T10:45:39;12.79;68.65
9861;DHT22;4969;52.304;4.968;2023-03-12T10:48:09;12.40;70.82
9861;DHT22;4969;52.304;4.968;2023-03-12T10:50:36;11.96;73.06
9861;DHT22;4969;52.304;4.968;2023-03-12T10:53:22;11.61;74.43
9861;DHT22;4969;52.304;4.968;2023-03-12T10:55:58;11.48;74.84
9861;DHT22;4969;52.304;4.968;2023-03-12T10:58:25;11.61;74.04
9861;DHT22;4969;52.304;4.968;2023-03-12T11:00:58;11.16;76.20
9861;DHT22;4969;52.304;4.968;2023-03-12T11:03:26;10.67;78.42
9861;DHT22;4969;52.304;4.968;2023-03-12T11:05:54;11.26;76.52
9861;DHT22;4969;52.304;4.968;2023-03-12T11:08:24;11.14;76.85
9861;DHT22;4969;52.304;4.968;2023-03-12T11:10:52;11.02;76.83
9861;DHT22;4969;52.304;4.968;2023-03-12T11:13:23;11.40;75.34
9861;DHT22;4969;52.304;4.968;2023-03-12T11:15:50;10.68;78.30
9861;DHT22;4969;52.304;4.968;2023-03-12T11:18:24;10.52;79.22
9861;DHT22;4969;52.304;4.968;2023-03-12T11:20:53;10.49;79.24
9861;DHT22;4969;52.304;4.968;2023-03-12T11:23:25;10.30;80.28
9861;DHT22;4969;52.304;4.968;2023-03-12T11:25:54;10.28;80.46
9861;DHT22;4969;52.304;4.968;2023-03-12T11:28:24;10.69;78.96
9861;DHT22;4969;52.304;4.968;2023-03-12T11:30:56;10.64;79.02
9861;DHT22;4969;52.304;4.968;2023-03-12T11:33:23;10.65;79.40
9861;DHT22;4969;52.304;4.968;2023-03-12T11:35:57;11.50;75.90
9861;DHT22;4969;52.304;4.968;2023-03-12T11:38:34;11.04;76.74
9861;DHT22;4969;52.304;4.968;2023-03-12T11:41:13;10.86;78.10
9861;DHT22;4969;52.304;4.968;2023-03-12T11:43:56;10.81;78.84
9861;DHT22;4969;52.304;4.968;2023-03-12T11:46:33;11.07;77.88
9861;DHT22;4969;52.304;4.968;2023-03-12T11:49:10;11.13;76.84
9861;DHT22;4969;52.304;4.968;2023-03-12T11:51:46;10.97;77.41
9861;DHT22;4969;52.304;4.968;2023-03-12T11:54:36;11.37;76.35
9861;DHT22;4969;52.304;4.968;2023-03-12T11:57:12;11.32;76.08
9861;DHT22;4969;52.304;4.968;2023-03-12T11:59:48;11.00;76.88
9861;DHT22;4969;52.304;4.968;2023-03-12T12:05:20;11.20;76.90
9861;DHT22;4969;52.304;4.968;2023-03-12T12:08:00;11.30;76.43
9861;DHT22;4969;52.304;4.968;2023-03-12T12:10:36;11.43;75.89
9861;DHT22;4969;52.304;4.968;2023-03-12T12:13:10;11.57;75.20
9861;DHT22;4969;52.304;4.968;2023-03-12T12:15:45;11.72;73.81
9861;DHT22;4969;52.304;4.968;2023-03-12T12:18:30;11.83;73.80
9861;DHT22;4969;52.304;4.968;2023-03-12T12:21:06;11.54;74.44
9861;DHT22;4969;52.304;4.968;2023-03-12T12:23:41;11.13;76.21
9861;DHT22;4969;52.304;4.968;2023-03-12T12:26:12;11.24;76.39
9861;DHT22;4969;52.304;4.968;2023-03-12T12:28:53;11.83;74.24
9861;DHT22;4969;52.304;4.968;2023-03-12T12:31:32;12.40;71.55
9861;DHT22;4969;52.304;4.968;2023-03-12T12:34:14;12.21;72.16
9861;DHT22;4969;52.304;4.968;2023-03-12T12:36:45;12.23;71.76
9861;DHT22;4969;52.304;4.968;2023-03-12T12:39:16;12.47;71.33
9861;DHT22;4969;52.304;4.968;2023-03-12T12:41:50;12.44;71.54
9861;DHT22;4969;52.304;4.968;2023-03-12T12:44:21;12.62;70.60
9861;DHT22;4969;52.304;4.968;2023-03-12T12:46:51;12.62;70.13
9861;DHT22;4969;52.304;4.968;2023-03-12T12:49:21;12.91;68.93
9861;DHT22;4969;52.304;4.968;2023-03-12T12:51:54;13.05;68.01
9861;DHT22;4969;52.304;4.968;2023-03-12T12:54:27;12.62;69.72
9861;DHT22;4969;52.304;4.968;2023-03-12T12:57:02;12.67;69.63
9861;DHT22;4969;52.304;4.968;2023-03-12T12:59:35;12.51;69.81
9861;DHT22;4969;52.304;4.968;2023-03-12T13:02:14;12.30;70.36
9861;DHT22;4969;52.304;4.968;2023-03-12T13:04:42;12.45;69.98
9861;DHT22;4969;52.304;4.968;2023-03-12T13:07:28;12.57;69.64
9861;DHT22;4969;52.304;4.968;2023-03-12T13:09:56;12.55;68.77
9861;DHT22;4969;52.304;4.968;2023-03-12T13:12:28;12.31;69.80
9861;DHT22;4969;52.304;4.968;2023-03-12T13:14:56;12.45;69.18
9861;DHT22;4969;52.304;4.968;2023-03-12T13:17:28;12.36;69.93
9861;DHT22;4969;52.304;4.968;2023-03-12T13:20:06;12.65;68.87
9861;DHT22;4969;52.304;4.968;2023-03-12T13:22:54;12.76;68.12
9861;DHT22;4969;52.304;4.968;2023-03-12T13:25:29;12.73;66.94
9861;DHT22;4969;52.304;4.968;2023-03-12T13:28:33;12.93;67.96
9861;DHT22;4969;52.304;4.968;2023-03-12T13:31:01;12.27;69.53
9861;DHT22;4969;52.304;4.968;2023-03-12T13:33:41;12.16;69.88
9861;DHT22;4969;52.304;4.968;2023-03-12T13:36:19;12.09;70.75
9861;DHT22;4969;52.304;4.968;2023-03-12T13:38:53;12.48;68.84
9861;DHT22;4969;52.304;4.968;2023-03-12T13:41:34;13.62;66.07
9861;DHT22;4969;52.304;4.968;2023-03-12T13:44:37;14.64;62.57
9861;DHT22;4969;52.304;4.968;2023-03-12T13:47:16;15.27;60.06
9861;DHT22;4969;52.304;4.968;2023-03-12T13:49:53;15.58;57.40
9861;DHT22;4969;52.304;4.968;2023-03-12T13:52:22;16.00;57.08
9861;DHT22;4969;52.304;4.968;2023-03-12T13:54:58;16.36;55.89
9861;DHT22;4969;52.304;4.968;2023-03-12T13:57:36;16.68;55.18
9861;DHT22;4969;52.304;4.968;2023-03-12T14:00:15;16.66;54.64
9861;DHT22;4969;52.304;4.968;2023-03-12T14:02:44;16.77;54.14
9861;DHT22;4969;52.304;4.968;2023-03-12T14:05:14;16.85;53.88
9861;DHT22;4969;52.304;4.968;2023-03-12T14:07:51;16.73;53.74
9861;DHT22;4969;52.304;4.968;2023-03-12T14:10:33;16.66;54.51
9861;DHT22;4969;52.304;4.968;2023-03-12T14:13:11;16.71;54.07
9861;DHT22;4969;52.304;4.968;2023-03-12T14:15:47;16.54;53.68
9861;DHT22;4969;52.304;4.968;2023-03-12T14:18:21;16.44;53.96
9861;DHT22;4969;52.304;4.968;2023-03-12T14:20:52;16.55;54.33
9861;DHT22;4969;52.304;4.968;2023-03-12T14:23:20;16.64;54.09
9861;DHT22;4969;52.304;4.968;2023-03-12T14:25:48;16.65;54.10
9861;DHT22;4969;52.304;4.968;2023-03-12T14:28:17;16.30;53.69
9861;DHT22;4969;52.304;4.968;2023-03-12T14:30:57;16.57;54.16
9861;DHT22;4969;52.304;4.968;2023-03-12T14:33:26;16.72;52.40
9861;DHT22;4969;52.304;4.968;2023-03-12T14:36:02;16.71;52.96
9861;DHT22;4969;52.304;4.968;2023-03-12T14:38:33;16.71;53.53
9861;DHT22;4969;52.304;4.968;2023-03-12T14:41:02;16.89;53.15
9861;DHT22;4969;52.304;4.968;2023-03-12T14:43:31;16.77;53.11
9861;DHT22;4969;52.304;4.968;2023-03-12T14:46:02;16.82;53.09
9861;DHT22;4969;52.304;4.968;2023-03-12T14:48:33;16.48;53.47
9861;DHT22;4969;52.304;4.968;2023-03-12T14:51:04;16.54;53.42
9861;DHT22;4969;52.304;4.968;2023-03-12T14:53:33;16.41;53.54
9861;DHT22;4969;52.304;4.968;2023-03-12T14:56:02;16.40;53.93
9861;DHT22;4969;52.304;4.968;2023-03-12T14:58:30;16.69;52.96
9861;DHT22;4969;52.304;4.968;2023-03-12T15:01:00;16.57;52.74
9861;DHT22;4969;52.304;4.968;2023-03-12T15:03:28;16.59;53.03
9861;DHT22;4969;52.304;4.968;2023-03-12T15:05:56;16.54;53.11
9861;DHT22;4969;52.304;4.968;2023-03-12T15:08:23;16.71;52.90
9861;DHT22;4969;52.304;4.968;2023-03-12T15:10:53;16.59;52.90
9861;DHT22;4969;52.304;4.968;2023-03-12T15:13:21;15.86;54.63
9861;DHT22;4969;52.304;4.968;2023-03-12T15:15:51;14.52;57.43
9861;DHT22;4969;52.304;4.968;2023-03-12T15:18:21;13.99;59.48
9861;DHT22;4969;52.304;4.968;2023-03-12T15:20:49;14.06;61.26
9861;DHT22;4969;52.304;4.968;2023-03-12T15:23:18;14.07;60.51
9861;DHT22;4969;52.304;4.968;2023-03-12T15:25:45;13.78;60.83
9861;DHT22;4969;52.304;4.968;2023-03-12T15:28:27;13.68;61.82
9861;DHT22;4969;52.304;4.968;2023-03-12T15:31:09;14.02;60.97
9861;DHT22;4969;52.304;4.968;2023-03-12T15:33:39;13.50;62.34
9861;DHT22;4969;52.304;4.968;2023-03-12T15:36:21;13.19;63.31
9861;DHT22;4969;52.304;4.968;2023-03-12T15:38:52;12.95;64.51
9861;DHT22;4969;52.304;4.968;2023-03-12T15:41:20;13.17;62.30
9861;DHT22;4969;52.304;4.968;2023-03-12T15:43:51;13.19;62.67
9861;DHT22;4969;52.304;4.968;2023-03-12T15:46:18;12.92;63.05
9861;DHT22;4969;52.304;4.968;2023-03-12T15:48:48;13.06;63.09
9861;DHT22;4969;52.304;4.968;2023-03-12T15:51:27;12.89;63.38
9861;DHT22;4969;52.304;4.968;2023-03-12T15:53:59;12.61;64.31
9861;DHT22;4969;52.304;4.968;2023-03-12T15:56:31;12.79;65.01
9861;DHT22;4969;52.304;4.968;2023-03-12T15:59:01;12.75;64.56
9861;DHT22;4969;52.304;4.968;2023-03-12T16:01:28;12.89;65.96
9861;DHT22;4969;52.304;4.968;2023-03-12T16:03:56;12.73;64.94
9861;DHT22;4969;52.304;4.968;2023-03-12T16:06:25;12.71;65.16
9861;DHT22;4969;52.304;4.968;2023-03-12T16:08:55;12.85;64.43
9861;DHT22;4969;52.304;4.968;2023-03-12T16:11:24;12.93;64.50
9861;DHT22;4969;52.304;4.968;2023-03-12T16:13:54;12.89;64.50
9861;DHT22;4969;52.304;4.968;2023-03-12T16:16:22;12.64;65.92
9861;DHT22;4969;52.304;4.968;2023-03-12T16:18:49;12.59;66.05
9861;DHT22;4969;52.304;4.968;2023-03-12T16:21:17;12.59;66.89
9861;DHT22;4969;52.304;4.968;2023-03-12T16:23:43;12.57;65.85
9861;DHT22;4969;52.304;4.968;2023-03-12T16:26:11;12.69;65.51